Time;durP1;ratioP1;P1;durP2;ratioP2;P2;SDS_P1;SDS_P2;PMS_P1;PMS_P2;Temp;Humidity;BMP_temperature;BMP_pressure;BME280_temperature;BME280_humidity;BME280_pressure;Samples;Min_cycle;Max_cycle;Signal;HPM_P1;HPM_P2
2021/03/10 00:01:18;;;;;;;12.55;6.53;;;;;;;-1.90;89.52;99762.41;1733396;81;21546;-62
2021/03/10 00:03:55;;;;;;;9.30;6.17;;;;;;;-1.95;89.58;99765.15;1731143;82;21135;-62
2021/03/10 00:06:29;;;;;;;11.45;6.50;;;;;;;-1.96;90.48;99761.19;1741429;80;21048;-62
2021/03/10 00:09:01;;;;;;;8.73;5.80;;;;;;;-1.93;90.99;99767.41;1789060;80;22124;-62
2021/03/10 00:11:36;;;;;;;8.43;5.17;;;;;;;-1.91;90.88;99768.38;1788946;80;21083;-62
2021/03/10 00:14:06;;;;;;;7.05;4.55;;;;;;;-1.91;90.88;99764.50;1790270;79;20937;-61
2021/03/10 00:16:39;;;;;;;7.53;4.37;;;;;;;-1.95;91.01;99766.44;1791365;80;20968;-62
2021/03/10 00:19:10;;;;;;;5.55;3.72;;;;;;;-1.99;91.04;99767.49;1783654;79;21342;-61
2021/03/10 00:21:41;;;;;;;6.12;3.80;;;;;;;-2.04;90.85;99765.95;1740994;81;21466;-62
2021/03/10 00:24:11;;;;;;;5.20;3.47;;;;;;;-2.08;90.98;99761.44;1764922;81;20965;-63
2021/03/10 00:26:41;;;;;;;6.42;3.77;;;;;;;-2.09;91.14;99767.81;1740946;81;20970;-64
2021/03/10 00:29:11;;;;;;;6.25;3.70;;;;;;;-2.12;91.19;99760.78;1739067;81;20982;-65
2021/03/10 00:31:41;;;;;;;5.42;3.60;;;;;;;-2.13;91.12;99756.83;1761701;81;20910;-65
2021/03/10 00:34:15;;;;;;;6.35;3.50;;;;;;;-2.17;90.96;99752.30;1759525;80;21150;-64
2021/03/10 00:36:46;;;;;;;5.17;3.52;;;;;;;-2.22;90.93;99757.22;1797636;79;20954;-64
2021/03/10 00:39:20;;;;;;;5.42;3.40;;;;;;;-2.29;90.93;99750.84;1781415;79;20966;-64
2021/03/10 00:41:51;;;;;;;4.22;3.22;;;;;;;-2.34;91.04;99756.56;1779584;79;21080;-63
2021/03/10 00:44:21;;;;;;;5.60;3.50;;;;;;;-2.42;91.18;99756.11;1779173;80;21120;-64
2021/03/10 00:46:51;;;;;;;5.25;3.30;;;;;;;-2.44;91.40;99755.14;1783167;79;21194;-64
2021/03/10 00:49:22;;;;;;;6.15;3.47;;;;;;;-2.49;91.58;99753.11;1780572;79;20923;-64
2021/03/10 00:51:55;;;;;;;5.92;3.80;;;;;;;-2.55;91.79;99745.52;1798730;79;20986;-64
2021/03/10 00:54:28;;;;;;;5.05;3.40;;;;;;;-2.58;92.07;99744.46;1794654;79;21065;-64
2021/03/10 00:57:01;;;;;;;6.05;3.50;;;;;;;-2.62;92.31;99733.48;1798392;79;20942;-64
2021/03/10 00:59:30;;;;;;;5.15;3.75;;;;;;;-2.63;92.60;99736.46;1793806;79;21473;-64
2021/03/10 01:02:00;;;;;;;5.25;3.72;;;;;;;-2.65;92.84;99733.31;1760349;81;20964;-61
2021/03/10 01:04:31;;;;;;;8.95;3.80;;;;;;;-2.66;93.11;99732.42;1745184;81;20961;-61
2021/03/10 01:07:01;;;;;;;5.55;3.83;;;;;;;-2.65;93.44;99733.31;1744333;81;20975;-62
2021/03/10 01:09:31;;;;;;;4.97;4.00;;;;;;;-2.66;93.62;99731.12;1741451;81;21074;-62
2021/03/10 01:12:01;;;;;;;5.85;4.00;;;;;;;-2.68;93.87;99729.27;1757717;81;22272;-63
2021/03/10 01:14:34;;;;;;;5.83;4.15;;;;;;;-2.69;94.11;99727.48;1746705;81;20992;-65
2021/03/10 01:17:08;;;;;;;7.35;4.53;;;;;;;-2.70;94.36;99729.59;1729828;81;21067;-64
2021/03/10 01:19:41;;;;;;;6.58;4.35;;;;;;;-2.70;94.82;99730.47;1732720;81;20956;-65
2021/03/10 01:22:12;;;;;;;6.50;4.50;;;;;;;-2.69;95.24;99725.80;1742159;82;21462;-64
2021/03/10 01:24:42;;;;;;;7.40;4.90;;;;;;;-2.65;95.61;99720.00;1772895;81;22262;-64
2021/03/10 01:27:16;;;;;;;7.28;5.22;;;;;;;-2.62;95.86;99717.98;1785685;80;20909;-63
2021/03/10 01:29:46;;;;;;;5.30;4.25;;;;;;;-2.62;95.83;99717.58;1782364;80;21485;-64
2021/03/10 01:32:19;;;;;;;8.45;5.45;;;;;;;-2.65;95.98;99708.78;1772808;81;20935;-64
2021/03/10 01:34:49;;;;;;;9.00;4.47;;;;;;;-2.71;96.25;99712.31;1787810;80;21059;-67
2021/03/10 01:37:19;;;;;;;7.53;5.05;;;;;;;-2.77;96.61;99711.58;1756245;81;21216;-64
2021/03/10 01:39:49;;;;;;;6.75;5.03;;;;;;;-2.81;97.07;99715.20;1769926;80;21095;-65
2021/03/10 01:42:21;;;;;;;8.15;5.22;;;;;;;-2.82;97.54;99725.03;1787430;80;21472;-65
2021/03/10 01:44:51;;;;;;;8.20;5.17;;;;;;;-2.84;97.84;99726.20;1798091;79;21076;-62
2021/03/10 01:47:23;;;;;;;6.83;4.80;;;;;;;-2.85;98.10;99717.98;1792613;80;20957;-65
2021/03/10 01:49:54;;;;;;;7.35;4.45;;;;;;;-2.86;98.22;99720.07;1794347;80;21211;-64
2021/03/10 01:52:27;;;;;;;6.55;4.17;;;;;;;-2.88;98.21;99719.98;1793745;80;21487;-64
2021/03/10 01:54:55;;;;;;;7.53;4.85;;;;;;;-2.90;98.09;99720.30;1789042;79;20961;-64
2021/03/10 01:57:25;;;;;;;6.00;4.40;;;;;;;-2.97;98.13;99722.45;1785900;80;20937;-62
2021/03/10 01:59:57;;;;;;;6.85;4.80;;;;;;;-3.04;98.32;99724.20;1787423;80;20886;-64
2021/03/10 02:03:02;;;;;;;6.75;4.85;;;;;;;-3.11;98.56;99726.84;1791536;80;20985;-64
2021/03/10 02:05:47;;;;;;;6.50;4.35;;;;;;;-3.26;99.01;99724.28;1791808;79;21024;-63
2021/03/10 02:08:41;;;;;;;6.83;4.58;;;;;;;-3.34;99.65;99725.91;1783838;79;20898;-62
2021/03/10 02:11:29;;;;;;;7.62;4.72;;;;;;;-3.38;100.00;99726.13;1767685;81;21001;-63
2021/03/10 02:14:15;;;;;;;6.12;4.58;;;;;;;-3.35;100.00;99721.55;1768219;80;21174;-64
2021/03/10 02:16:58;;;;;;;6.28;4.70;;;;;;;-3.36;100.00;99725.81;1797828;79;21199;-64
2021/03/10 02:20:00;;;;;;;6.95;4.80;;;;;;;-3.36;100.00;99720.66;1787220;79;21099;-64
2021/03/10 02:22:56;;;;;;;8.08;4.83;;;;;;;-3.39;100.00;99728.22;1767705;81;20957;-64
2021/03/10 02:25:40;;;;;;;9.23;4.75;;;;;;;-3.33;100.00;99730.26;1773021;79;20886;-64
2021/03/10 02:28:10;;;;;;;7.57;4.70;;;;;;;-3.31;100.00;99734.74;1717494;81;20965;-64
2021/03/10 02:30:57;;;;;;;8.18;4.83;;;;;;;-3.25;100.00;99729.94;1837498;78;22727;-62
2021/03/10 02:33:29;;;;;;;5.30;3.95;;;;;;;-3.34;100.00;99728.08;1744092;81;20927;-62
2021/03/10 02:36:08;;;;;;;;;;;;;;;-3.40;100.00;99725.55;1750086;82;21385;-62
2021/03/10 02:38:42;;;;;;;5.95;4.37;;;;;;;-3.43;100.00;99722.80;1729436;81;20225;-62
2021/03/10 02:41:16;;;;;;;6.47;4.67;;;;;;;-3.46;100.00;99729.95;1734515;82;20995;-62
2021/03/10 02:43:49;;;;;;;6.58;5.10;;;;;;;-3.50;100.00;99735.73;1693147;83;21049;-62
2021/03/10 02:46:27;;;;;;;6.25;4.35;;;;;;;-3.54;100.00;99726.93;1754684;80;21500;-62
2021/03/10 02:48:57;;;;;;;6.47;4.65;;;;;;;-3.52;100.00;99727.91;1768653;80;20943;-63
2021/03/10 02:51:32;;;;;;;6.03;4.60;;;;;;;-3.49;100.00;99730.67;1768121;78;21049;-62
2021/03/10 02:54:00;;;;;;;6.40;4.53;;;;;;;-3.52;100.00;99731.78;1750377;82;20927;-63
2021/03/10 02:56:32;;;;;;;6.45;4.90;;;;;;;-3.55;100.00;99729.02;1760055;78;20967;-63
2021/03/10 02:59:04;;;;;;;6.65;4.92;;;;;;;-3.59;100.00;99733.91;1777219;80;21128;-63
2021/03/10 03:01:34;;;;;;;8.78;4.90;;;;;;;-3.65;100.00;99733.15;1747292;80;21598;-63
2021/03/10 03:04:06;;;;;;;9.40;4.95;;;;;;;-3.65;100.00;99732.27;1759563;80;21563;-62
2021/03/10 03:06:37;;;;;;;8.33;5.08;;;;;;;-3.69;100.00;99733.77;1771141;80;21023;-62
2021/03/10 03:09:08;;;;;;;8.83;5.30;;;;;;;-3.73;100.00;99727.95;1766408;80;20936;-62
2021/03/10 03:11:39;;;;;;;8.60;6.15;;;;;;;-3.77;100.00;99727.67;1725891;80;20935;-62
2021/03/10 03:14:09;;;;;;;10.75;5.83;;;;;;;-3.83;100.00;99719.14;1729682;82;21384;-62
2021/03/10 03:16:40;;;;;;;7.12;5.30;;;;;;;-3.91;100.00;99721.67;1769226;79;21105;-63
2021/03/10 03:19:11;;;;;;;10.80;6.03;;;;;;;-3.93;100.00;99723.27;1781369;79;20917;-62
2021/03/10 03:21:40;;;;;;;7.17;5.58;;;;;;;-3.94;100.00;99718.91;1781310;79;20922;-62
2021/03/10 03:24:11;;;;;;;8.53;5.83;;;;;;;-3.95;100.00;99723.57;1781306;80;20921;-62
2021/03/10 03:26:41;;;;;;;8.83;5.53;;;;;;;-3.99;100.00;99721.21;1761630;80;22273;-62
2021/03/10 03:29:10;;;;;;;8.70;5.20;;;;;;;-3.99;100.00;99727.66;1773705;79;21567;-62
2021/03/10 03:31:40;;;;;;;7.55;5.17;;;;;;;-3.95;100.00;99721.89;1717304;82;21079;-63
2021/03/10 03:34:12;;;;;;;8.00;5.28;;;;;;;-3.93;100.00;99725.44;1719961;82;20947;-62
2021/03/10 03:36:44;;;;;;;9.33;5.78;;;;;;;-3.96;100.00;99721.39;1746027;80;20949;-64
2021/03/10 03:39:13;;;;;;;6.40;4.25;;;;;;;-4.02;100.00;99720.14;1762471;80;21283;-64
2021/03/10 03:41:46;;;;;;;9.08;5.47;;;;;;;-4.04;100.00;99723.02;1770417;80;20973;-62
2021/03/10 03:44:15;;;;;;;;;;;;;;;-4.09;100.00;99725.32;1746345;81;20994;-61
2021/03/10 03:46:46;;;;;;;7.62;5.55;;;;;;;-4.09;100.00;99721.45;1744219;81;20515;-66
2021/03/10 03:49:15;;;;;;;7.60;5.78;;;;;;;-4.10;100.00;99728.70;1759193;79;20984;-66
2021/03/10 03:51:45;;;;;;;7.67;5.75;;;;;;;-4.12;100.00;99727.31;1802264;78;21366;-61
2021/03/10 03:54:15;;;;;;;9.15;5.55;;;;;;;-4.16;100.00;99729.61;1773997;79;20982;-61
2021/03/10 03:56:44;;;;;;;8.23;5.65;;;;;;;-4.18;100.00;99728.23;1836846;77;21139;-61
2021/03/10 03:59:14;;;;;;;9.03;5.72;;;;;;;-4.21;100.00;99725.47;1746528;80;21038;-61
2021/03/10 04:01:44;;;;;;;6.58;5.12;;;;;;;-4.23;100.00;99724.48;1754766;81;21006;-63
2021/03/10 04:04:15;;;;;;;11.03;5.60;;;;;;;-4.22;100.00;99730.12;1739176;81;21220;-61
2021/03/10 04:06:46;;;;;;;9.25;5.62;;;;;;;-4.21;100.00;99729.34;1748609;81;21002;-61
2021/03/10 04:09:16;;;;;;;7.90;5.53;;;;;;;-4.21;100.00;99718.14;1791711;78;21152;-62
2021/03/10 04:11:47;;;;;;;9.28;5.58;;;;;;;-4.21;100.00;99721.61;1732954;81;21137;-61
2021/03/10 04:14:17;;;;;;;7.95;4.95;;;;;;;-4.19;100.00;99721.30;1762384;79;20971;-62
2021/03/10 04:16:47;;;;;;;7.25;5.42;;;;;;;-4.22;100.00;99718.94;1731426;81;21362;-60
2021/03/10 04:19:17;;;;;;;7.67;4.87;;;;;;;-4.27;100.00;99721.20;1709640;81;21533;-61
2021/03/10 04:21:46;;;;;;;8.48;5.47;;;;;;;-4.29;100.00;99720.62;1725096;81;20991;-61
2021/03/10 04:24:15;;;;;;;6.78;5.03;;;;;;;-4.28;100.00;99717.25;1743629;80;20997;-62
2021/03/10 04:26:46;;;;;;;7.25;4.67;;;;;;;-4.29;100.00;99719.33;1765529;80;20980;-61
2021/03/10 04:29:16;;;;;;;8.20;5.72;;;;;;;-4.30;100.00;99718.44;1769631;79;21193;-61
2021/03/10 04:31:46;;;;;;;8.85;5.65;;;;;;;-4.32;100.00;99718.75;1782477;79;20947;-61
2021/03/10 04:34:15;;;;;;;8.30;5.47;;;;;;;-4.35;100.00;99715.98;1739291;82;21575;-61
2021/03/10 04:36:46;;;;;;;9.10;5.37;;;;;;;-4.39;100.00;99718.27;1739225;82;20995;-62
2021/03/10 04:39:16;;;;;;;7.30;5.37;;;;;;;-4.43;100.00;99719.77;1739170;82;21006;-62
2021/03/10 04:41:46;;;;;;;8.30;5.70;;;;;;;-4.42;100.00;99718.98;1744391;79;22283;-61
2021/03/10 04:44:16;;;;;;;9.85;5.25;;;;;;;-4.39;100.00;99718.27;1739011;81;21018;-61
2021/03/10 04:46:46;;;;;;;7.30;5.40;;;;;;;-4.36;100.00;99715.89;1730402;82;20995;-61
2021/03/10 04:49:16;;;;;;;8.50;5.45;;;;;;;-4.33;100.00;99715.67;1727306;80;21136;-63
2021/03/10 04:51:45;;;;;;;8.55;5.50;;;;;;;-4.31;100.00;99719.23;1735843;81;21105;-62
2021/03/10 04:54:15;;;;;;;7.78;4.85;;;;;;;-4.31;100.00;99711.91;1731089;82;21373;-62
2021/03/10 04:56:45;;;;;;;7.42;5.10;;;;;;;-4.28;100.00;99719.82;1731125;82;21560;-62
2021/03/10 04:59:14;;;;;;;9.10;5.12;;;;;;;-4.27;100.00;99711.30;1709756;84;21018;-62
2021/03/10 05:01:44;;;;;;;6.87;5.15;;;;;;;-4.25;100.00;99713.20;1744880;79;21626;-62
2021/03/10 05:04:13;;;;;;;10.48;5.87;;;;;;;-4.23;100.00;99712.89;1757738;80;20932;-62
2021/03/10 05:06:44;;;;;;;12.63;6.17;;;;;;;-4.23;100.00;99712.01;1733467;82;20983;-62
2021/03/10 05:09:13;;;;;;;8.10;5.20;;;;;;;-4.18;100.00;99711.48;1733548;82;21027;-63
2021/03/10 05:11:42;;;;;;;7.45;5.40;;;;;;;-4.17;100.00;99702.96;1733600;82;20959;-63
2021/03/10 05:14:12;;;;;;;6.83;5.47;;;;;;;-4.19;100.00;99711.00;1733261;82;20951;-63
2021/03/10 05:16:41;;;;;;;8.18;5.80;;;;;;;-4.23;100.00;99709.44;1733638;82;20952;-63
2021/03/10 05:19:10;;;;;;;7.22;5.25;;;;;;;-4.24;100.00;99707.66;1733588;81;21161;-64
2021/03/10 05:21:40;;;;;;;7.00;5.17;;;;;;;-4.29;100.00;99700.91;1726526;82;20990;-63
2021/03/10 05:24:09;;;;;;;7.70;5.58;;;;;;;-4.31;100.00;99707.65;1726578;82;21505;-65
2021/03/10 05:26:39;;;;;;;9.75;5.33;;;;;;;-4.30;100.00;99714.97;1726570;82;20958;-63
2021/03/10 05:29:09;;;;;;;13.18;5.53;;;;;;;-4.28;100.00;99703.97;1744486;81;20942;-62
2021/03/10 05:31:38;;;;;;;7.80;5.65;;;;;;;-4.26;100.00;99706.23;1799322;79;21473;-62
2021/03/10 05:34:08;;;;;;;10.90;5.80;;;;;;;-4.22;100.00;99713.39;1733569;82;20955;-62
2021/03/10 05:36:38;;;;;;;7.20;5.20;;;;;;;-4.18;100.00;99714.47;1737004;82;20952;-63
2021/03/10 05:39:08;;;;;;;9.73;5.28;;;;;;;-4.15;100.00;99719.41;1722059;82;20970;-63
2021/03/10 05:41:38;;;;;;;7.58;5.47;;;;;;;-4.12;100.00;99722.16;1739468;82;21345;-63
2021/03/10 05:44:07;;;;;;;9.33;5.83;;;;;;;-4.09;100.00;99724.44;1708367;83;21457;-63
2021/03/10 05:46:37;;;;;;;9.43;5.25;;;;;;;-4.09;100.00;99729.19;1729328;82;21115;-63
2021/03/10 05:49:07;;;;;;;12.33;6.08;;;;;;;-4.08;100.00;99725.81;1740498;81;20958;-64
2021/03/10 05:51:38;;;;;;;9.00;5.90;;;;;;;-4.02;100.00;99733.02;1751256;81;21485;-63
2021/03/10 05:54:07;;;;;;;8.78;5.97;;;;;;;-3.99;100.00;99734.09;1748060;80;21090;-64
2021/03/10 05:56:43;;;;;;;11.40;6.37;;;;;;;-3.96;100.00;99729.13;1728166;81;21382;-63
2021/03/10 05:59:13;;;;;;;11.33;6.03;;;;;;;-3.92;100.00;99731.09;1794614;79;20954;-64
2021/03/10 06:01:42;;;;;;;9.43;5.45;;;;;;;-3.87;100.00;99729.67;1717477;82;20976;-65
2021/03/10 06:04:12;;;;;;;8.68;5.70;;;;;;;-3.84;100.00;99735.01;1713143;83;21085;-63
2021/03/10 06:06:42;;;;;;;6.83;5.30;;;;;;;-3.77;100.00;99738.88;1739378;81;20915;-63
2021/03/10 06:09:21;;;;;;;9.18;5.53;;;;;;;-3.72;100.00;99740.03;1795742;78;22297;-64
2021/03/10 06:12:02;;;;;;;8.23;5.08;;;;;;;-3.67;100.00;99747.64;1810223;79;20951;-63
2021/03/10 06:14:32;;;;;;;8.18;5.45;;;;;;;-3.63;100.00;99752.18;1740160;82;20912;-63
2021/03/10 06:17:07;;;;;;;8.90;5.37;;;;;;;-3.63;100.00;99754.76;1750347;80;20945;-64
2021/03/10 06:19:47;;;;;;;7.75;5.10;;;;;;;-3.62;100.00;99752.67;1769406;80;20954;-63
2021/03/10 06:22:18;;;;;;;10.30;5.10;;;;;;;-3.62;100.00;99753.07;1768240;79;21411;-63
2021/03/10 06:24:57;;;;;;;7.58;5.10;;;;;;;-3.58;100.00;99755.92;1743743;82;20974;-64
2021/03/10 06:27:26;;;;;;;9.25;5.25;;;;;;;-3.53;100.00;99749.73;1737823;81;20940;-63
2021/03/10 06:29:59;;;;;;;6.87;4.92;;;;;;;-3.50;100.00;99755.97;1770443;80;20940;-64
2021/03/10 06:32:29;;;;;;;10.78;5.92;;;;;;;-3.47;100.00;99755.25;1769874;80;20918;-63
2021/03/10 06:34:58;;;;;;;8.95;5.12;;;;;;;-3.42;100.00;99748.67;1759015;79;21158;-63
2021/03/10 06:37:32;;;;;;;6.90;4.42;;;;;;;-3.36;100.00;99750.32;1739275;82;20938;-63
2021/03/10 06:40:11;;;;;;;7.30;4.87;;;;;;;-3.32;100.00;99753.56;1739322;82;20923;-63
2021/03/10 06:42:45;;;;;;;7.40;4.92;;;;;;;-3.29;100.00;99752.89;1748122;79;20923;-64
2021/03/10 06:45:15;;;;;;;7.20;4.85;;;;;;;-3.26;100.00;99750.08;1746440;81;21097;-63
2021/03/10 06:47:44;;;;;;;6.08;4.72;;;;;;;-3.22;100.00;99752.04;1739297;82;21208;-63
2021/03/10 06:50:15;;;;;;;7.12;4.55;;;;;;;-3.17;100.00;99751.90;1739250;82;20974;-63
2021/03/10 06:52:50;;;;;;;6.10;4.58;;;;;;;-3.12;100.00;99758.61;1741751;79;20916;-63
2021/03/10 06:55:20;;;;;;;7.80;5.05;;;;;;;-3.08;100.00;99759.68;1762701;79;21502;-63
2021/03/10 06:57:49;;;;;;;5.60;4.50;;;;;;;-3.11;100.00;99761.69;1769935;80;20883;-63
2021/03/10 07:00:23;;;;;;;10.65;5.08;;;;;;;-3.10;100.00;99766.04;1769804;80;22179;-63
2021/03/10 07:02:52;;;;;;;5.83;4.62;;;;;;;-3.09;100.00;99767.81;1737651;82;20954;-63
2021/03/10 07:05:22;;;;;;;7.25;4.97;;;;;;;-3.02;100.00;99762.61;1787424;79;20934;-62
2021/03/10 07:07:51;;;;;;;8.03;5.25;;;;;;;-2.98;100.00;99764.55;1743783;81;20938;-63
2021/03/10 07:10:24;;;;;;;8.30;4.50;;;;;;;-2.98;100.00;99762.87;1810308;79;26633;-63
2021/03/10 07:12:59;;;;;;;8.43;4.83;;;;;;;-2.97;100.00;99759.48;1809450;78;21373;-63
2021/03/10 07:15:29;;;;;;;6.37;4.47;;;;;;;-2.97;100.00;99764.64;1791416;78;21104;-63
2021/03/10 07:17:59;;;;;;;7.47;4.87;;;;;;;-2.97;100.00;99766.34;1787399;80;20943;-64
2021/03/10 07:20:29;;;;;;;6.30;4.33;;;;;;;-3.02;99.37;99762.61;1787256;79;20907;-64
2021/03/10 07:23:09;;;;;;;7.55;4.70;;;;;;;-3.06;99.07;99762.83;1787326;79;20943;-64
2021/03/10 07:25:44;;;;;;;6.87;5.00;;;;;;;-3.04;98.65;99766.79;1788823;79;21375;-64
2021/03/10 07:28:20;;;;;;;6.35;4.50;;;;;;;-3.05;98.62;99766.30;1805824;79;21548;-64
2021/03/10 07:30:49;;;;;;;7.83;4.97;;;;;;;-2.99;98.61;99762.78;1769905;80;20930;-64
2021/03/10 07:33:22;;;;;;;7.17;4.50;;;;;;;-2.93;99.28;99768.29;1764570;80;21060;-64
2021/03/10 07:35:58;;;;;;;5.67;4.37;;;;;;;-2.87;99.69;99755.73;1738474;82;20943;-64
2021/03/10 07:38:38;;;;;;;5.65;4.30;;;;;;;-2.75;100.00;99762.90;1738367;82;21424;-64
2021/03/10 07:41:13;;;;;;;11.60;4.83;;;;;;;-2.69;100.00;99763.23;1741439;82;20952;-64
2021/03/10 07:43:49;;;;;;;13.58;4.85;;;;;;;-2.65;99.81;99762.61;1736999;80;20959;-64
2021/03/10 07:46:26;;;;;;;8.60;4.42;;;;;;;-2.66;98.09;99754.38;1753218;81;21519;-64
2021/03/10 07:48:56;;;;;;;12.82;4.65;;;;;;;-2.65;97.57;99763.01;1739933;82;20960;-64
2021/03/10 07:51:33;;;;;;;9.73;4.70;;;;;;;-2.64;97.66;99763.49;1739938;82;22105;-65
2021/03/10 07:54:05;;;;;;;8.15;4.62;;;;;;;-2.62;97.88;99761.88;1768805;81;20968;-64
2021/03/10 07:56:34;;;;;;;7.92;4.55;;;;;;;-2.58;97.53;99754.39;1763165;81;20984;-62
2021/03/10 07:59:17;;;;;;;6.50;4.20;;;;;;;-2.55;97.56;99755.84;1752123;81;21090;-63
2021/03/10 08:01:48;;;;;;;5.85;4.12;;;;;;;-2.50;96.87;99748.75;1730285;81;21136;-63
2021/03/10 08:04:18;;;;;;;7.83;4.92;;;;;;;-2.49;96.28;99735.92;1727874;82;21350;-63
2021/03/10 08:06:54;;;;;;;7.20;4.37;;;;;;;-2.48;96.77;99731.24;1731328;82;21014;-62
2021/03/10 08:09:26;;;;;;;9.78;4.55;;;;;;;-2.43;97.30;99727.21;1731313;83;20971;-63
2021/03/10 08:12:11;;;;;;;9.55;4.70;;;;;;;-2.37;97.38;99725.36;1748128;82;20971;-64
2021/03/10 08:14:43;;;;;;;6.42;4.40;;;;;;;-2.31;97.05;99728.31;1730734;82;21060;-63
2021/03/10 08:17:22;;;;;;;7.75;4.58;;;;;;;-2.26;96.46;99732.91;1738835;82;21165;-63
2021/03/10 08:19:54;;;;;;;7.92;4.58;;;;;;;-2.22;95.92;99737.84;1797937;79;21656;-63
2021/03/10 08:22:25;;;;;;;6.67;4.75;;;;;;;-2.19;95.45;99734.53;1790576;78;21077;-63
2021/03/10 08:24:55;;;;;;;5.05;3.87;;;;;;;-2.11;95.79;99731.95;1793358;79;21501;-63
2021/03/10 08:27:33;;;;;;;7.92;4.90;;;;;;;-2.02;96.24;99722.98;1794358;79;20931;-63
2021/03/10 08:30:05;;;;;;;8.33;4.25;;;;;;;-1.92;95.48;99729.52;1794237;79;21263;-62
2021/03/10 08:32:34;;;;;;;8.58;4.87;;;;;;;-1.83;95.48;99733.02;1804793;79;20978;-62
2021/03/10 08:35:18;;;;;;;5.37;3.87;;;;;;;-1.79;94.37;99735.84;1806351;79;20943;-62
2021/03/10 08:37:56;;;;;;;5.87;4.50;;;;;;;-1.79;93.38;99731.08;1806296;78;21057;-62
2021/03/10 08:40:26;;;;;;;5.53;4.00;;;;;;;-1.79;92.87;99734.55;1806392;79;20942;-62
2021/03/10 08:42:57;;;;;;;7.87;4.35;;;;;;;-1.74;92.86;99738.66;1811694;79;21403;-62
2021/03/10 08:45:38;;;;;;;7.03;3.98;;;;;;;-1.71;92.48;99738.83;1749940;82;20962;-62
2021/03/10 08:48:09;;;;;;;7.62;4.60;;;;;;;-1.66;92.78;99737.36;1816905;79;20950;-63
2021/03/10 08:50:43;;;;;;;4.58;3.72;;;;;;;-1.64;92.09;99738.33;1750668;81;21061;-62
2021/03/10 08:53:14;;;;;;;4.60;3.87;;;;;;;-1.64;91.99;99752.55;1747579;82;20934;-63
2021/03/10 08:55:46;;;;;;;9.13;4.22;;;;;;;-1.66;91.39;99739.95;1754088;81;21381;-63
2021/03/10 08:58:18;;;;;;;11.85;4.25;;;;;;;-1.66;90.98;99740.84;1786583;80;20952;-63
2021/03/10 09:00:49;;;;;;;7.47;4.37;;;;;;;-1.67;90.46;99736.88;1771462;81;21587;-62
2021/03/10 09:03:19;;;;;;;7.90;4.30;;;;;;;-1.70;90.79;99744.07;1765013;81;21583;-63
2021/03/10 09:05:53;;;;;;;4.72;3.95;;;;;;;-1.64;90.53;99747.38;1755420;81;20959;-63
2021/03/10 09:08:24;;;;;;;8.50;4.22;;;;;;;-1.62;90.81;99743.17;1753384;81;21356;-63
2021/03/10 09:10:55;;;;;;;3.95;3.02;;;;;;;-1.65;90.63;99739.14;1749575;82;21100;-63
2021/03/10 09:13:29;;;;;;;9.73;4.60;;;;;;;-1.61;91.42;99744.95;1765173;80;20937;-63
2021/03/10 09:16:10;;;;;;;5.37;3.75;;;;;;;-1.61;92.33;99743.66;1718454;81;20943;-64
2021/03/10 09:18:41;;;;;;;6.62;4.25;;;;;;;-1.54;91.25;99745.75;1779386;80;21066;-63
2021/03/10 09:21:11;;;;;;;9.18;4.22;;;;;;;-1.55;90.82;99737.50;1780928;80;22264;-63
2021/03/10 09:23:43;;;;;;;5.83;4.15;;;;;;;-1.53;91.26;99744.94;1750015;82;20965;-63
2021/03/10 09:26:13;;;;;;;5.60;4.00;;;;;;;-1.50;91.54;99739.91;1816856;78;21504;-63
2021/03/10 09:28:44;;;;;;;6.45;4.60;;;;;;;-1.46;91.85;99735.78;1749677;82;20966;-63
2021/03/10 09:31:24;;;;;;;7.85;4.40;;;;;;;-1.42;92.10;99736.05;1744002;82;21130;-63
2021/03/10 09:34:05;;;;;;;6.33;4.33;;;;;;;-1.41;92.46;99742.11;1755654;81;21539;-63
2021/03/10 09:36:41;;;;;;;5.35;4.30;;;;;;;-1.39;91.94;99735.31;1793611;79;20963;-63
2021/03/10 09:39:13;;;;;;;6.25;4.90;;;;;;;-1.37;91.26;99734.58;1727745;82;20951;-63
2021/03/10 09:41:47;;;;;;;6.42;4.72;;;;;;;-1.33;91.20;99736.50;1710697;82;21108;-63
2021/03/10 09:44:24;;;;;;;6.15;4.37;;;;;;;-1.28;91.78;99728.97;1749794;81;20994;-63
2021/03/10 09:46:54;;;;;;;8.43;5.12;;;;;;;-1.18;92.13;99722.55;1755983;81;21444;-63
2021/03/10 09:49:24;;;;;;;5.97;4.58;;;;;;;-1.11;93.10;99723.33;1731121;81;21168;-62
2021/03/10 09:51:54;;;;;;;6.80;4.80;;;;;;;-0.99;94.08;99723.92;1737616;81;21029;-63
2021/03/10 09:54:25;;;;;;;7.20;4.63;;;;;;;-0.87;94.07;99718.48;1746402;81;20958;-64
2021/03/10 09:56:56;;;;;;;5.62;4.60;;;;;;;-0.76;93.55;99718.17;1756526;81;20964;-63
2021/03/10 09:59:33;;;;;;;6.08;4.78;;;;;;;-0.65;93.06;99705.31;1754722;81;21314;-63
2021/03/10 10:02:04;;;;;;;8.30;4.80;;;;;;;-0.51;92.62;99724.09;1746928;81;21476;-63
2021/03/10 10:04:38;;;;;;;9.80;4.90;;;;;;;-0.42;92.25;99709.00;1743979;81;20949;-63
2021/03/10 10:07:12;;;;;;;5.65;4.47;;;;;;;-0.42;90.42;99714.19;1722692;81;20903;-63
2021/03/10 10:09:54;;;;;;;6.03;4.60;;;;;;;-0.47;89.66;99705.72;1842266;77;22766;-63
2021/03/10 10:12:26;;;;;;;6.37;4.70;;;;;;;-0.53;89.72;99707.99;1809978;79;21029;-68
2021/03/10 10:15:06;;;;;;;7.22;5.37;;;;;;;-0.51;89.59;99706.36;1809562;79;21357;-65
2021/03/10 10:17:48;;;;;;;7.33;5.42;;;;;;;-0.49;89.91;99707.32;1809371;78;20989;-64
2021/03/10 10:20:19;;;;;;;8.15;5.30;;;;;;;-0.54;89.89;99704.52;1809451;79;20970;-63
2021/03/10 10:22:48;;;;;;;7.72;4.90;;;;;;;-0.57;89.79;99704.78;1809396;78;20990;-63
2021/03/10 10:25:22;;;;;;;6.10;5.03;;;;;;;-0.59;89.42;99704.71;1809609;79;21461;-63
2021/03/10 10:27:53;;;;;;;6.53;5.17;;;;;;;-0.58;89.35;99706.48;1810716;78;21184;-63
2021/03/10 10:30:23;;;;;;;7.33;5.45;;;;;;;-0.57;89.20;99711.26;1774695;79;20947;-63
2021/03/10 10:32:52;;;;;;;9.03;5.47;;;;;;;-0.54;89.93;99706.22;1803253;77;21460;-63
2021/03/10 10:35:22;;;;;;;11.25;5.80;;;;;;;-0.50;89.87;99715.91;1790778;79;20934;-63
2021/03/10 10:37:52;;;;;;;5.90;4.90;;;;;;;-0.54;89.29;99707.52;1752490;80;21460;-63
2021/03/10 10:40:22;;;;;;;6.90;4.97;;;;;;;-0.63;87.81;99702.80;1797367;79;21364;-63
2021/03/10 10:42:56;;;;;;;6.70;5.20;;;;;;;-0.71;88.04;99712.80;1805488;78;20990;-63
2021/03/10 10:45:26;;;;;;;8.15;5.60;;;;;;;-0.74;88.20;99702.30;1806273;79;21046;-63
2021/03/10 10:47:56;;;;;;;7.03;5.80;;;;;;;-0.71;88.22;99709.32;1734022;82;21038;-63
2021/03/10 10:50:28;;;;;;;6.65;5.17;;;;;;;-0.78;88.10;99709.44;1734192;81;21034;-63
2021/03/10 10:52:58;;;;;;;6.22;5.55;;;;;;;-0.82;88.52;99714.41;1787175;80;21431;-63
2021/03/10 10:55:29;;;;;;;8.00;5.75;;;;;;;-0.83;88.85;99708.34;1722934;81;21587;-63
2021/03/10 10:57:59;;;;;;;7.75;5.50;;;;;;;-0.84;89.76;99703.08;1747131;81;21031;-65
2021/03/10 11:00:28;;;;;;;8.08;5.85;;;;;;;-0.85;89.80;99705.19;1738758;82;20991;-63
2021/03/10 11:03:00;;;;;;;7.85;5.58;;;;;;;-0.86;90.16;99708.19;1737992;82;21080;-63
2021/03/10 11:05:33;;;;;;;13.32;5.90;;;;;;;-0.88;90.24;99698.57;1761948;79;21202;-63
2021/03/10 11:08:05;;;;;;;8.43;5.78;;;;;;;-0.88;90.84;99699.87;1769646;80;20975;-63
2021/03/10 11:10:34;;;;;;;8.15;6.10;;;;;;;-0.90;90.51;99693.73;1738938;80;20959;-64
2021/03/10 11:13:05;;;;;;;7.70;6.05;;;;;;;-0.94;90.87;99699.17;1755292;80;21503;-63
2021/03/10 11:15:36;;;;;;;8.45;6.45;;;;;;;-0.92;91.85;99696.66;1811531;78;20946;-64
2021/03/10 11:18:24;;;;;;;9.58;6.22;;;;;;;-0.87;92.06;99689.58;1738391;82;21459;-64
2021/03/10 11:20:54;;;;;;;8.58;6.12;;;;;;;-0.87;92.59;99677.92;1737518;82;21010;-63
2021/03/10 11:23:26;;;;;;;7.62;5.97;;;;;;;-0.81;93.07;99678.63;1763014;81;20986;-63
2021/03/10 11:25:56;;;;;;;10.03;6.40;;;;;;;-0.83;93.06;99679.84;1765969;81;20975;-62
2021/03/10 11:28:25;;;;;;;8.13;6.08;;;;;;;-0.85;93.85;99674.11;1773971;79;21441;-63
2021/03/10 11:30:55;;;;;;;10.95;6.42;;;;;;;-0.85;93.87;99671.52;1734498;82;21338;-62
2021/03/10 11:33:25;;;;;;;9.03;6.12;;;;;;;-0.83;94.25;99672.08;1774443;79;20978;-62
2021/03/10 11:35:56;;;;;;;7.40;6.42;;;;;;;-0.80;94.44;99664.45;1745411;81;21026;-63
2021/03/10 11:38:26;;;;;;;9.30;5.97;;;;;;;-0.80;94.76;99669.62;1774213;79;21045;-63
2021/03/10 11:41:15;;;;;;;9.83;6.20;;;;;;;-0.78;94.49;99670.99;1812306;78;20915;-63
2021/03/10 11:43:46;;;;;;;7.75;5.97;;;;;;;-0.79;94.50;99661.05;1801711;79;21631;-62
2021/03/10 11:46:16;;;;;;;10.35;6.30;;;;;;;-0.76;94.39;99668.95;1806173;79;20896;-63
2021/03/10 11:48:45;;;;;;;8.28;6.10;;;;;;;-0.71;95.06;99664.88;1807353;78;21477;-63
2021/03/10 11:51:15;;;;;;;9.13;6.53;;;;;;;-0.71;94.36;99664.88;1816241;79;20932;-63
2021/03/10 11:53:46;;;;;;;9.18;6.35;;;;;;;-0.70;93.81;99652.81;1731162;83;20920;-63